Clipper Saga — LAFY6 — position and weather

sailwx.info

Track history (hours):
 
Tides and Currents Weather Stations Pressure Air Temp Water Temp Dewpoint Dewpoint Depression Visibility Wind Speed Wind Dir Waves Ship Positions

Clipper Saga

Last reported at 2017-Sep-21 03:00 UTC. Time now 2017-Sep-21 03:31 UTC.
Position N 53°09' E 004°29'.

Length 89 m; draft 5.9 m.

Type: Ship (hazmat cat C). MMSI: 246657008.

Date/timePositionNaut miles runAvg speedWind from/ knotsBaromVisibWave heightAir tempDewpointWater temp
2017-Sep-21 03:00N 53°09' E 004°29'812.7
2017-Sep-21 02:23N 53°02' E 004°23'611.9
2017-Sep-21 01:54N 52°57' E 004°18'511.7
2017-Sep-21 01:26N 52°52' E 004°14'511.4
2017-Sep-21 00:59N 52°48' E 004°10'611.2
2017-Sep-21 00:29N 52°43' E 004°05'611.0
2017-Sep-20 23:58N 52°38' E 004°00'510.9
2017-Sep-20 23:30N 52°34' E 003°56'510.6
2017-Sep-20 23:00N 52°28' E 003°54'510.6
2017-Sep-20 22:30N 52°23' E 003°52'510.4
2017-Sep-20 22:01N 52°18' E 003°52'510.6
2017-Sep-20 21:31N 52°13' E 003°53'510.6
2017-Sep-20 21:01N 52°08' E 003°55'510.4
2017-Sep-20 20:30N 52°03' E 003°54'5 9.8
2017-Sep-20 20:01N 52°00' E 004°01'612.9
2017-Sep-20 19:30N 51°57' E 004°10'612.7
2017-Sep-20 19:00N 51°53' E 004°19'1 1.5
2017-Sep-20 18:30N 51°53' E 004°18'0 0.0
2017-Sep-20 18:00N 51°53' E 004°18'0 0.0
2017-Sep-20 17:30N 51°53' E 004°18'0 0.0
2017-Sep-20 17:00N 51°53' E 004°18'0 0.0
2017-Sep-20 16:30N 51°53' E 004°18'0 0.0
2017-Sep-20 16:00N 51°53' E 004°18'0 0.0
2017-Sep-20 15:30N 51°53' E 004°18'0 0.0
2017-Sep-20 15:00N 51°53' E 004°18'0 0.0
2017-Sep-20 14:00N 51°53' E 004°18'0 0.0
2017-Sep-20 13:27N 51°53' E 004°18'0 0.0
2017-Sep-20 12:54N 51°53' E 004°18'0 0.0
2017-Sep-20 12:30N 51°53' E 004°18'0 0.0
2017-Sep-20 12:00N 51°53' E 004°18'0 0.0
2017-Sep-20 11:30N 51°53' E 004°18'0 0.0
2017-Sep-20 10:57N 51°53' E 004°18'0 0.0
2017-Sep-20 10:30N 51°53' E 004°18'0 0.0
2017-Sep-20 10:00N 51°53' E 004°18'0 0.0
2017-Sep-20 09:18N 51°53' E 004°18'0 0.0
2017-Sep-20 09:00N 51°53' E 004°18'0 0.0
2017-Sep-20 08:30N 51°53' E 004°18'0 0.0
2017-Sep-20 08:00N 51°53' E 004°18'0 0.0
2017-Sep-20 07:30N 51°53' E 004°18'0 0.0
2017-Sep-20 07:00N 51°53' E 004°18'0 0.0
2017-Sep-20 06:30N 51°53' E 004°18'0 0.0
2017-Sep-20 05:57N 51°53' E 004°18'0 0.0
2017-Sep-20 05:30N 51°53' E 004°18'0 0.0
2017-Sep-20 04:57N 51°53' E 004°18'0 0.0
2017-Sep-20 04:30N 51°53' E 004°18'0 0.0
2017-Sep-20 04:00N 51°53' E 004°18'0 0.0
2017-Sep-20 03:24N 51°53' E 004°18'0 0.0
2017-Sep-20 03:00N 51°53' E 004°18'0 0.0
2017-Sep-20 02:27N 51°53' E 004°18'0 0.0
2017-Sep-20 01:48N 51°53' E 004°18'0 0.0
2017-Sep-20 01:27N 51°53' E 004°18'0 0.0
2017-Sep-20 01:00N 51°53' E 004°18'0 0.0
2017-Sep-20 00:30N 51°53' E 004°18'0 0.0
2017-Sep-20 00:00N 51°53' E 004°18'0 0.0
2017-Sep-19 23:24N 51°53' E 004°18'0 0.0
2017-Sep-19 23:00N 51°53' E 004°18'0 0.0
2017-Sep-19 22:30N 51°53' E 004°18'0 0.0
2017-Sep-19 22:00N 51°53' E 004°18'0 0.0
2017-Sep-19 21:30N 51°53' E 004°18'0 0.0
2017-Sep-19 21:00N 51°53' E 004°18'0 0.0
2017-Sep-19 20:30N 51°53' E 004°18'0 0.0
2017-Sep-19 20:00N 51°53' E 004°18'0 0.0
2017-Sep-19 19:30N 51°53' E 004°18'0 0.0
2017-Sep-19 19:00N 51°53' E 004°18'0 0.0
2017-Sep-19 18:30N 51°53' E 004°18'0 0.0
2017-Sep-19 18:00N 51°53' E 004°18'0 0.0
2017-Sep-19 17:30N 51°53' E 004°18'0 0.0
2017-Sep-19 17:00N 51°53' E 004°18'0 0.0
2017-Sep-19 16:24N 51°53' E 004°18'0 0.0
2017-Sep-19 15:57N 51°53' E 004°18'0 0.0
2017-Sep-19 15:18N 51°53' E 004°18'0 0.1
2017-Sep-19 15:01N 51°53' E 004°18'2 3.9
2017-Sep-19 14:30N 51°54' E 004°16'713.2
2017-Sep-19 14:00N 51°58' E 004°07'612.1
2017-Sep-19 13:30N 52°00' E 003°58'4 8.6
2017-Sep-19 13:00N 52°02' E 003°52'4 8.9
2017-Sep-19 12:30N 52°02' E 003°44'35 3.6
2017-Sep-19 02:44N 51°59' E 002°47'2 7.9
2017-Sep-19 02:30N 51°58' E 002°49'5 9.0
2017-Sep-19 01:59N 51°55' E 002°56'611.7
2017-Sep-19 01:30N 51°53' E 003°04'611.4
2017-Sep-19 01:00N 51°49' E 003°11'611.1
2017-Sep-19 00:30N 51°44' E 003°16'6 9.9
2017-Sep-18 23:55N 51°39' E 003°20'511.6
2017-Sep-18 23:30N 51°35' E 003°24'611.3
2017-Sep-18 23:00N 51°30' E 003°28'5 9.8
2017-Sep-18 22:30N 51°27' E 003°34'3 5.8
2017-Sep-18 22:00N 51°26' E 003°38'5 9.2
2017-Sep-18 21:30N 51°23' E 003°43'5 9.5
2017-Sep-18 21:00N 51°20' E 003°49'0 0.4
2017-Sep-18 20:30N 51°20' E 003°49'0 0.8
2017-Sep-18 20:00N 51°19' E 003°49'2 3.5
2017-Sep-18 19:31N 51°18' E 003°50'3 5.5
2017-Sep-18 19:01N 51°15' E 003°49'4 7.6
2017-Sep-18 18:31N 51°11' E 003°48'2 5.0
2017-Sep-18 18:01N 51°09' E 003°47'0 0.0
2017-Sep-18 17:28N 51°09' E 003°47'0 0.0
2017-Sep-18 16:58N 51°09' E 003°47'0 0.0
2017-Sep-18 16:28N 51°09' E 003°47'0 0.0
2017-Sep-18 15:55N 51°09' E 003°47'0 0.0
2017-Sep-18 15:28N 51°09' E 003°47'0 0.0
2017-Sep-18 14:58N 51°09' E 003°47'0 0.0
2017-Sep-18 14:25N 51°09' E 003°47'0 0.0
2017-Sep-18 13:55N 51°09' E 003°47'0 0.0
2017-Sep-18 13:28N 51°09' E 003°47'0 0.0
2017-Sep-18 12:58N 51°09' E 003°47'0 0.0
2017-Sep-18 12:28N 51°09' E 003°47'0 0.0
2017-Sep-18 11:58N 51°09' E 003°47'0 0.0
2017-Sep-18 11:28N 51°09' E 003°47'0 0.0
2017-Sep-18 10:55N 51°09' E 003°47'0 0.0
2017-Sep-18 10:28N 51°09' E 003°47'0 0.0
2017-Sep-18 09:58N 51°09' E 003°47'0 0.0
2017-Sep-18 09:28N 51°09' E 003°47'0 0.0
2017-Sep-18 08:55N 51°09' E 003°47'0 0.0
2017-Sep-18 08:25N 51°09' E 003°47'0 0.0
2017-Sep-18 07:58N 51°09' E 003°47'0 0.0
2017-Sep-18 07:22N 51°09' E 003°47'0 0.0
2017-Sep-18 06:55N 51°09' E 003°47'0 0.0
2017-Sep-18 06:28N 51°09' E 003°47'0 0.0
2017-Sep-18 05:55N 51°09' E 003°47'0 0.0
2017-Sep-18 05:25N 51°09' E 003°47'0 0.0
2017-Sep-18 04:58N 51°09' E 003°47'0 0.0
2017-Sep-18 04:28N 51°09' E 003°47'0 0.0
2017-Sep-18 03:58N 51°09' E 003°47'0 0.0
2017-Sep-18 03:28N 51°09' E 003°47'0 0.0
2017-Sep-18 02:55N 51°09' E 003°47'0 0.0
2017-Sep-18 02:28N 51°09' E 003°47'0 0.0
2017-Sep-18 01:55N 51°09' E 003°47'0 0.0
2017-Sep-18 01:25N 51°09' E 003°47'0 0.0
2017-Sep-18 00:58N 51°09' E 003°47'0 0.0
2017-Sep-18 00:25N 51°09' E 003°47'0 0.0
2017-Sep-17 23:58N 51°09' E 003°47'0 0.0
2017-Sep-17 23:28N 51°09' E 003°47'0 0.0
2017-Sep-17 22:58N 51°09' E 003°47'0 0.0
2017-Sep-17 22:25N 51°09' E 003°47'0 0.0
2017-Sep-17 21:55N 51°09' E 003°47'0 0.0
2017-Sep-17 21:29N 51°09' E 003°47'0 0.3
2017-Sep-17 21:01N 51°09' E 003°47'3 5.6
2017-Sep-17 20:31N 51°12' E 003°48'3 7.0
2017-Sep-17 20:01N 51°15' E 003°49'4 7.6
2017-Sep-17 19:30N 51°19' E 003°50'1 2.2
2017-Sep-17 19:00N 51°20' E 003°49'0 0.9
2017-Sep-17 18:30N 51°20' E 003°49'3 6.6
2017-Sep-17 18:00N 51°22' E 003°44'4 8.4
2017-Sep-17 17:30N 51°26' E 003°41'5 9.3
2017-Sep-17 17:00N 51°27' E 003°34'611.1
2017-Sep-17 16:30N 51°30' E 003°27'510.6
2017-Sep-17 16:00N 51°35' E 003°23'510.7
2017-Sep-17 15:29N 51°40' E 003°19'5 9.4
2017-Sep-17 14:58N 51°45' E 003°17'4 0.7
2017-Sep-17 08:50N 51°48' E 003°21'0 0.2
2017-Sep-17 08:23N 51°48' E 003°21'0 0.1
2017-Sep-17 07:50N 51°48' E 003°21'0 0.0
2017-Sep-17 07:17N 51°48' E 003°21'0 0.0
2017-Sep-17 06:56N 51°48' E 003°21'0 0.0
2017-Sep-17 06:26N 51°48' E 003°21'0 0.0
2017-Sep-17 05:59N 51°48' E 003°21'0 0.0
2017-Sep-17 05:23N 51°48' E 003°21'0 0.0
2017-Sep-17 04:59N 51°48' E 003°21'0 0.0
2017-Sep-17 04:23N 51°48' E 003°21'0 0.1
2017-Sep-17 03:59N 51°48' E 003°21'0 0.1
2017-Sep-17 03:17N 51°48' E 003°21'0 0.0
2017-Sep-17 02:56N 51°48' E 003°21'0 0.0
2017-Sep-17 02:26N 51°48' E 003°21'0 0.0
2017-Sep-17 01:02N 51°48' E 003°21'0 0.0
2017-Sep-17 00:56N 51°48' E 003°21'0 0.0
2017-Sep-17 00:26N 51°48' E 003°21'0 0.0
2017-Sep-16 23:59N 51°48' E 003°21'0 0.0
2017-Sep-16 23:26N 51°48' E 003°21'0 0.0
2017-Sep-16 22:20N 51°48' E 003°21'68 7.3
2017-Sep-16 13:02N 52°38' E 002°05'110.5
2017-Sep-16 12:56N 52°39' E 002°05'510.4
2017-Sep-16 12:30N 52°43' E 002°02'5 9.6
2017-Sep-16 12:00N 52°47' E 001°57'510.1
2017-Sep-16 11:30N 52°49' E 001°50'5 9.8
2017-Sep-16 11:00N 52°51' E 001°43'5 9.5
2017-Sep-16 10:30N 52°55' E 001°37'5 9.4
2017-Sep-16 10:01N 52°58' E 001°32'9 9.9
2017-Sep-16 09:05N 53°05' E 001°22'110.1
2017-Sep-16 09:00N 53°06' E 001°21'510.3
2017-Sep-16 08:31N 53°10' E 001°15'510.3
2017-Sep-16 08:00N 53°13' E 001°10'4610.8
2017-Sep-16 03:43N 53°35' E 000°01'312.9
2017-Sep-16 03:30N 53°36' W 000°03'510.6
2017-Sep-16 03:00N 53°38' W 000°11'511.0
2017-Sep-16 02:30N 53°43' W 000°15'1 2.6
2017-Sep-16 02:00N 53°44' W 000°16'0 1.0
2017-Sep-16 01:30N 53°45' W 000°15'0 0.0
2017-Sep-16 00:55N 53°45' W 000°15'0 0.0
2017-Sep-16 00:28N 53°45' W 000°15'0 0.0
2017-Sep-15 23:58N 53°45' W 000°15'0 0.0
2017-Sep-15 23:28N 53°45' W 000°15'0 0.0
2017-Sep-15 22:58N 53°45' W 000°15'0 0.0
2017-Sep-15 22:28N 53°45' W 000°15'0 0.0
2017-Sep-15 21:58N 53°45' W 000°15'0 0.0
2017-Sep-15 21:25N 53°45' W 000°15'0 0.0
2017-Sep-15 20:58N 53°45' W 000°15'0 0.0
2017-Sep-15 20:28N 53°45' W 000°15'0 0.0
2017-Sep-15 19:58N 53°45' W 000°15'0 0.0
2017-Sep-15 19:28N 53°45' W 000°15'0 0.0
2017-Sep-15 18:58N 53°45' W 000°15'0 0.0
2017-Sep-15 18:28N 53°45' W 000°15'0 0.0
2017-Sep-15 17:58N 53°45' W 000°15'0 0.0
2017-Sep-15 17:29N 53°45' W 000°15'0 1.0
2017-Sep-15 17:00N 53°44' W 000°16'0 0.3
2017-Sep-15 16:30N 53°44' W 000°17'0 0.6
2017-Sep-15 16:00N 53°44' W 000°16'3 6.8
2017-Sep-15 15:30N 53°41' W 000°13'4 8.5
2017-Sep-15 15:00N 53°38' W 000°09'25 6.3
2017-Sep-15 11:03N 53°59' E 000°12'112.6
2017-Sep-15 10:59N 54°00' E 000°11'612.7
2017-Sep-15 10:30N 54°06' E 000°08'612.3
2017-Sep-15 10:00N 54°12' E 000°04'612.0
2017-Sep-15 09:30N 54°17' W 000°01'611.8
2017-Sep-15 09:00N 54°22' W 000°06'611.7
2017-Sep-15 08:30N 54°27' W 000°11'611.4
2017-Sep-15 08:00N 54°32' W 000°15'510.8
2017-Sep-15 07:30N 54°37' W 000°20'510.7
2017-Sep-15 07:00N 54°42' W 000°24'1710.6
2017-Sep-15 05:27N 54°56' W 000°38'1610.7
2017-Sep-15 03:59N 55°10' W 000°51'610.7
2017-Sep-15 03:23N 55°16' W 000°56'410.7
2017-Sep-15 02:59N 55°19' W 000°60'510.8
2017-Sep-15 02:30N 55°24' W 001°04'510.9
2017-Sep-15 02:00N 55°29' W 001°09'611.2
2017-Sep-15 01:29N 55°34' W 001°14'611.1
2017-Sep-15 00:56N 55°39' W 001°19'1111.5
2017-Sep-14 23:57N 55°46' W 001°35'512.0
2017-Sep-14 23:30N 55°49' W 001°43'611.9
2017-Sep-14 23:00N 55°52' W 001°52'612.2
2017-Sep-14 22:30N 55°55' W 002°01'612.0
2017-Sep-14 22:00N 55°58' W 002°11'611.9
2017-Sep-14 21:30N 56°01' W 002°20'612.0
2017-Sep-14 21:00N 56°04' W 002°30'611.7
2017-Sep-14 20:30N 56°06' W 002°39'611.8
2017-Sep-14 20:00N 56°06' W 002°50'611.1
2017-Sep-14 19:30N 56°03' W 002°59'510.6
2017-Sep-14 19:00N 56°03' W 003°08'510.9
2017-Sep-14 18:30N 56°01' W 003°18'8 0.3
2017-Sep-13 19:31N 56°02' W 003°32'011.6
2017-Sep-13 19:30N 56°02' W 003°32'611.8
2017-Sep-13 19:00N 56°01' W 003°21'612.4
2017-Sep-13 18:30N 56°03' W 003°11'2 4.6
2017-Sep-13 17:58N 56°02' W 003°06'0 0.0
2017-Sep-13 17:28N 56°02' W 003°06'0 0.1
2017-Sep-13 16:58N 56°02' W 003°06'0 0.0
2017-Sep-13 16:28N 56°02' W 003°06'0 0.0
2017-Sep-13 15:58N 56°02' W 003°06'0 0.0
2017-Sep-13 15:28N 56°02' W 003°06'0 0.1
2017-Sep-13 14:58N 56°02' W 003°07'0 0.2
2017-Sep-13 14:28N 56°02' W 003°06'0 0.0
2017-Sep-13 13:58N 56°02' W 003°06'0 0.0
2017-Sep-13 13:28N 56°02' W 003°06'0 0.0
2017-Sep-13 12:58N 56°02' W 003°06'0 0.0
2017-Sep-13 12:28N 56°02' W 003°06'0 0.0
2017-Sep-13 11:58N 56°02' W 003°06'0 0.0
2017-Sep-13 11:28N 56°02' W 003°06'0 0.0
2017-Sep-13 10:58N 56°02' W 003°06'0 0.0
2017-Sep-13 10:28N 56°02' W 003°06'0 0.0
2017-Sep-13 09:58N 56°02' W 003°06'0 0.0
2017-Sep-13 09:28N 56°02' W 003°06'0 0.0
2017-Sep-13 08:58N 56°02' W 003°06'0 0.0
2017-Sep-13 08:28N 56°02' W 003°06'0 0.0
2017-Sep-13 07:58N 56°02' W 003°06'0 0.0
2017-Sep-13 07:28N 56°02' W 003°06'0 0.0
2017-Sep-13 06:58N 56°02' W 003°06'0 0.0
2017-Sep-13 06:28N 56°02' W 003°06'0 0.0
2017-Sep-13 05:58N 56°02' W 003°06'0 0.0
2017-Sep-13 05:28N 56°02' W 003°06'0 0.0
2017-Sep-13 04:58N 56°02' W 003°06'0 0.0
2017-Sep-13 04:28N 56°02' W 003°06'0 0.0
2017-Sep-13 03:58N 56°02' W 003°06'0 0.0
2017-Sep-13 03:28N 56°02' W 003°06'0 0.0
2017-Sep-13 02:58N 56°02' W 003°06'0 0.0
2017-Sep-13 02:28N 56°02' W 003°06'0 0.1
2017-Sep-13 01:58N 56°02' W 003°06'0 0.0
2017-Sep-13 01:28N 56°02' W 003°06'0 0.0
2017-Sep-13 00:58N 56°02' W 003°06'0 0.0
2017-Sep-13 00:28N 56°02' W 003°06'0 0.0
2017-Sep-12 23:58N 56°02' W 003°06'0 0.0
2017-Sep-12 23:28N 56°02' W 003°06'0 0.0
2017-Sep-12 22:58N 56°02' W 003°06'0 0.0
2017-Sep-12 22:28N 56°02' W 003°06'0 0.1
2017-Sep-12 21:58N 56°02' W 003°06'0 0.1
2017-Sep-12 21:28N 56°02' W 003°06'0 0.0
2017-Sep-12 20:58N 56°02' W 003°06'0 0.0
2017-Sep-12 20:28N 56°02' W 003°06'0 0.0
2017-Sep-12 19:58N 56°02' W 003°06'0 0.0
2017-Sep-12 19:28N 56°02' W 003°06'0 0.0
2017-Sep-12 18:58N 56°02' W 003°06'0 0.0
2017-Sep-12 18:28N 56°02' W 003°06'0 0.0
2017-Sep-12 17:58N 56°02' W 003°06'0 0.0
2017-Sep-12 17:28N 56°02' W 003°06'0 0.0
2017-Sep-12 16:58N 56°02' W 003°06'0 0.1
2017-Sep-12 16:28N 56°02' W 003°06'0 0.0
2017-Sep-12 15:58N 56°02' W 003°06'0 0.0
2017-Sep-12 15:28N 56°02' W 003°06'0 0.0
2017-Sep-12 14:58N 56°02' W 003°06'0 0.1
2017-Sep-12 14:28N 56°02' W 003°06'0 0.0
2017-Sep-12 13:58N 56°02' W 003°06'0 0.1
2017-Sep-12 13:28N 56°02' W 003°06'0 0.1
2017-Sep-12 12:58N 56°02' W 003°06'0 0.0
2017-Sep-12 12:28N 56°02' W 003°06'0 0.0
2017-Sep-12 11:58N 56°02' W 003°06'0 0.0
2017-Sep-12 11:28N 56°02' W 003°06'0 0.0
2017-Sep-12 10:58N 56°02' W 003°06'0 0.0
2017-Sep-12 10:28N 56°02' W 003°06'0 0.0
2017-Sep-12 09:58N 56°02' W 003°06'0 0.0
2017-Sep-12 09:28N 56°02' W 003°06'0 0.0
2017-Sep-12 08:58N 56°02' W 003°06'0 0.0
2017-Sep-12 08:28N 56°02' W 003°06'0 0.7
2017-Sep-12 08:00N 56°02' W 003°06'5 9.6
2017-Sep-12 07:30N 56°04' W 002°58'510.9
2017-Sep-12 07:00N 56°06' W 002°49'510.6
2017-Sep-12 06:30N 56°06' W 002°40'510.9
2017-Sep-12 06:00N 56°05' W 002°30'511.0
2017-Sep-12 05:30N 56°04' W 002°20'510.6
2017-Sep-12 05:00N 56°03' W 002°11'510.6
2017-Sep-12 04:30N 56°02' W 002°02'510.5
2017-Sep-12 04:00N 56°01' W 001°52'510.4
2017-Sep-12 03:30N 55°60' W 001°43'5 9.8
2017-Sep-12 02:59N 55°57' W 001°36'28 7.4
2017-Sep-11 23:07N 55°35' W 001°02'3 8.2
2017-Sep-11 22:47N 55°33' W 001°01'3 8.2
2017-Sep-11 22:26N 55°30' W 001°01'5 8.3
2017-Sep-11 21:50N 55°25' W 000°59'4 8.7
2017-Sep-11 21:20N 55°21' W 000°58'3 9.2
2017-Sep-11 21:00N 55°18' W 000°58'5 9.1
2017-Sep-11 20:28N 55°13' W 000°57'1410.4
2017-Sep-11 19:08N 54°59' W 000°53'111.0
2017-Sep-11 19:00N 54°58' W 000°53'611.1
2017-Sep-11 18:30N 54°52' W 000°51'510.3
2017-Sep-11 18:00N 54°47' W 000°54'612.3
2017-Sep-11 17:30N 54°43' W 001°02'  
Track history (hours):
 
Tides and Currents Weather Stations Pressure Air Temp Water Temp Dewpoint Dewpoint Depression Visibility Wind Speed Wind Dir Waves Ship Positions

Clipper Saga

Last reported at 2017-Sep-21 03:00 UTC. Time now 2017-Sep-21 03:31 UTC.
Position N 53°09' E 004°29'.

Length 89 m; draft 5.9 m.

Type: Ship (hazmat cat C). MMSI: 246657008.

Date/timePositionNaut miles runAvg speedWind from/ knotsBaromVisibWave heightAir tempDewpointWater temp
2017-Sep-21 03:00N 53°09' E 004°29'812.7
2017-Sep-21 02:23N 53°02' E 004°23'611.9
2017-Sep-21 01:54N 52°57' E 004°18'511.7
2017-Sep-21 01:26N 52°52' E 004°14'511.4
2017-Sep-21 00:59N 52°48' E 004°10'611.2
2017-Sep-21 00:29N 52°43' E 004°05'611.0
2017-Sep-20 23:58N 52°38' E 004°00'510.9
2017-Sep-20 23:30N 52°34' E 003°56'510.6
2017-Sep-20 23:00N 52°28' E 003°54'510.6
2017-Sep-20 22:30N 52°23' E 003°52'510.4
2017-Sep-20 22:01N 52°18' E 003°52'510.6
2017-Sep-20 21:31N 52°13' E 003°53'510.6
2017-Sep-20 21:01N 52°08' E 003°55'510.4
2017-Sep-20 20:30N 52°03' E 003°54'5 9.8
2017-Sep-20 20:01N 52°00' E 004°01'612.9
2017-Sep-20 19:30N 51°57' E 004°10'612.7
2017-Sep-20 19:00N 51°53' E 004°19'1 1.5
2017-Sep-20 18:30N 51°53' E 004°18'0 0.0
2017-Sep-20 18:00N 51°53' E 004°18'0 0.0
2017-Sep-20 17:30N 51°53' E 004°18'0 0.0
2017-Sep-20 17:00N 51°53' E 004°18'0 0.0
2017-Sep-20 16:30N 51°53' E 004°18'0 0.0
2017-Sep-20 16:00N 51°53' E 004°18'0 0.0
2017-Sep-20 15:30N 51°53' E 004°18'0 0.0
2017-Sep-20 15:00N 51°53' E 004°18'0 0.0
2017-Sep-20 14:00N 51°53' E 004°18'0 0.0
2017-Sep-20 13:27N 51°53' E 004°18'0 0.0
2017-Sep-20 12:54N 51°53' E 004°18'0 0.0
2017-Sep-20 12:30N 51°53' E 004°18'0 0.0
2017-Sep-20 12:00N 51°53' E 004°18'0 0.0
2017-Sep-20 11:30N 51°53' E 004°18'0 0.0
2017-Sep-20 10:57N 51°53' E 004°18'0 0.0
2017-Sep-20 10:30N 51°53' E 004°18'0 0.0
2017-Sep-20 10:00N 51°53' E 004°18'0 0.0
2017-Sep-20 09:18N 51°53' E 004°18'0 0.0
2017-Sep-20 09:00N 51°53' E 004°18'0 0.0
2017-Sep-20 08:30N 51°53' E 004°18'0 0.0
2017-Sep-20 08:00N 51°53' E 004°18'0 0.0
2017-Sep-20 07:30N 51°53' E 004°18'0 0.0
2017-Sep-20 07:00N 51°53' E 004°18'0 0.0
2017-Sep-20 06:30N 51°53' E 004°18'0 0.0
2017-Sep-20 05:57N 51°53' E 004°18'0 0.0
2017-Sep-20 05:30N 51°53' E 004°18'0 0.0
2017-Sep-20 04:57N 51°53' E 004°18'0 0.0
2017-Sep-20 04:30N 51°53' E 004°18'0 0.0
2017-Sep-20 04:00N 51°53' E 004°18'0 0.0
2017-Sep-20 03:24N 51°53' E 004°18'0 0.0
2017-Sep-20 03:00N 51°53' E 004°18'0 0.0
2017-Sep-20 02:27N 51°53' E 004°18'0 0.0
2017-Sep-20 01:48N 51°53' E 004°18'0 0.0
2017-Sep-20 01:27N 51°53' E 004°18'0 0.0
2017-Sep-20 01:00N 51°53' E 004°18'0 0.0
2017-Sep-20 00:30N 51°53' E 004°18'0 0.0
2017-Sep-20 00:00N 51°53' E 004°18'0 0.0
2017-Sep-19 23:24N 51°53' E 004°18'0 0.0
2017-Sep-19 23:00N 51°53' E 004°18'0 0.0
2017-Sep-19 22:30N 51°53' E 004°18'0 0.0
2017-Sep-19 22:00N 51°53' E 004°18'0 0.0
2017-Sep-19 21:30N 51°53' E 004°18'0 0.0
2017-Sep-19 21:00N 51°53' E 004°18'0 0.0
2017-Sep-19 20:30N 51°53' E 004°18'0 0.0
2017-Sep-19 20:00N 51°53' E 004°18'0 0.0
2017-Sep-19 19:30N 51°53' E 004°18'0 0.0
2017-Sep-19 19:00N 51°53' E 004°18'0 0.0
2017-Sep-19 18:30N 51°53' E 004°18'0 0.0
2017-Sep-19 18:00N 51°53' E 004°18'0 0.0
2017-Sep-19 17:30N 51°53' E 004°18'0 0.0
2017-Sep-19 17:00N 51°53' E 004°18'0 0.0
2017-Sep-19 16:24N 51°53' E 004°18'0 0.0
2017-Sep-19 15:57N 51°53' E 004°18'0 0.0
2017-Sep-19 15:18N 51°53' E 004°18'0 0.1
2017-Sep-19 15:01N 51°53' E 004°18'2 3.9
2017-Sep-19 14:30N 51°54' E 004°16'713.2
2017-Sep-19 14:00N 51°58' E 004°07'612.1
2017-Sep-19 13:30N 52°00' E 003°58'4 8.6
2017-Sep-19 13:00N 52°02' E 003°52'4 8.9
2017-Sep-19 12:30N 52°02' E 003°44'35 3.6
2017-Sep-19 02:44N 51°59' E 002°47'2 7.9
2017-Sep-19 02:30N 51°58' E 002°49'5 9.0
2017-Sep-19 01:59N 51°55' E 002°56'611.7
2017-Sep-19 01:30N 51°53' E 003°04'611.4
2017-Sep-19 01:00N 51°49' E 003°11'611.1
2017-Sep-19 00:30N 51°44' E 003°16'6 9.9
2017-Sep-18 23:55N 51°39' E 003°20'511.6
2017-Sep-18 23:30N 51°35' E 003°24'611.3
2017-Sep-18 23:00N 51°30' E 003°28'5 9.8
2017-Sep-18 22:30N 51°27' E 003°34'3 5.8
2017-Sep-18 22:00N 51°26' E 003°38'5 9.2
2017-Sep-18 21:30N 51°23' E 003°43'5 9.5
2017-Sep-18 21:00N 51°20' E 003°49'0 0.4
2017-Sep-18 20:30N 51°20' E 003°49'0 0.8
2017-Sep-18 20:00N 51°19' E 003°49'2 3.5
2017-Sep-18 19:31N 51°18' E 003°50'3 5.5
2017-Sep-18 19:01N 51°15' E 003°49'4 7.6
2017-Sep-18 18:31N 51°11' E 003°48'2 5.0
2017-Sep-18 18:01N 51°09' E 003°47'0 0.0
2017-Sep-18 17:28N 51°09' E 003°47'0 0.0
2017-Sep-18 16:58N 51°09' E 003°47'0 0.0
2017-Sep-18 16:28N 51°09' E 003°47'0 0.0
2017-Sep-18 15:55N 51°09' E 003°47'0 0.0
2017-Sep-18 15:28N 51°09' E 003°47'0 0.0
2017-Sep-18 14:58N 51°09' E 003°47'0 0.0
2017-Sep-18 14:25N 51°09' E 003°47'0 0.0
2017-Sep-18 13:55N 51°09' E 003°47'0 0.0
2017-Sep-18 13:28N 51°09' E 003°47'0 0.0
2017-Sep-18 12:58N 51°09' E 003°47'0 0.0
2017-Sep-18 12:28N 51°09' E 003°47'0 0.0
2017-Sep-18 11:58N 51°09' E 003°47'0 0.0
2017-Sep-18 11:28N 51°09' E 003°47'0 0.0
2017-Sep-18 10:55N 51°09' E 003°47'0 0.0
2017-Sep-18 10:28N 51°09' E 003°47'0 0.0
2017-Sep-18 09:58N 51°09' E 003°47'0 0.0
2017-Sep-18 09:28N 51°09' E 003°47'0 0.0
2017-Sep-18 08:55N 51°09' E 003°47'0 0.0
2017-Sep-18 08:25N 51°09' E 003°47'0 0.0
2017-Sep-18 07:58N 51°09' E 003°47'0 0.0
2017-Sep-18 07:22N 51°09' E 003°47'0 0.0
2017-Sep-18 06:55N 51°09' E 003°47'0 0.0
2017-Sep-18 06:28N 51°09' E 003°47'0 0.0
2017-Sep-18 05:55N 51°09' E 003°47'0 0.0
2017-Sep-18 05:25N 51°09' E 003°47'0 0.0
2017-Sep-18 04:58N 51°09' E 003°47'0 0.0
2017-Sep-18 04:28N 51°09' E 003°47'0 0.0
2017-Sep-18 03:58N 51°09' E 003°47'0 0.0
2017-Sep-18 03:28N 51°09' E 003°47'0 0.0
2017-Sep-18 02:55N 51°09' E 003°47'0 0.0
2017-Sep-18 02:28N 51°09' E 003°47'0 0.0
2017-Sep-18 01:55N 51°09' E 003°47'0 0.0
2017-Sep-18 01:25N 51°09' E 003°47'0 0.0
2017-Sep-18 00:58N 51°09' E 003°47'0 0.0
2017-Sep-18 00:25N 51°09' E 003°47'0 0.0
2017-Sep-17 23:58N 51°09' E 003°47'0 0.0
2017-Sep-17 23:28N 51°09' E 003°47'0 0.0
2017-Sep-17 22:58N 51°09' E 003°47'0 0.0
2017-Sep-17 22:25N 51°09' E 003°47'0 0.0
2017-Sep-17 21:55N 51°09' E 003°47'0 0.0
2017-Sep-17 21:29N 51°09' E 003°47'0 0.3
2017-Sep-17 21:01N 51°09' E 003°47'3 5.6
2017-Sep-17 20:31N 51°12' E 003°48'3 7.0
2017-Sep-17 20:01N 51°15' E 003°49'4 7.6
2017-Sep-17 19:30N 51°19' E 003°50'1 2.2
2017-Sep-17 19:00N 51°20' E 003°49'0 0.9
2017-Sep-17 18:30N 51°20' E 003°49'3 6.6
2017-Sep-17 18:00N 51°22' E 003°44'4 8.4
2017-Sep-17 17:30N 51°26' E 003°41'5 9.3
2017-Sep-17 17:00N 51°27' E 003°34'611.1
2017-Sep-17 16:30N 51°30' E 003°27'510.6
2017-Sep-17 16:00N 51°35' E 003°23'510.7
2017-Sep-17 15:29N 51°40' E 003°19'5 9.4
2017-Sep-17 14:58N 51°45' E 003°17'4 0.7
2017-Sep-17 08:50N 51°48' E 003°21'0 0.2
2017-Sep-17 08:23N 51°48' E 003°21'0 0.1
2017-Sep-17 07:50N 51°48' E 003°21'0 0.0
2017-Sep-17 07:17N 51°48' E 003°21'0 0.0
2017-Sep-17 06:56N 51°48' E 003°21'0 0.0
2017-Sep-17 06:26N 51°48' E 003°21'0 0.0
2017-Sep-17 05:59N 51°48' E 003°21'0 0.0
2017-Sep-17 05:23N 51°48' E 003°21'0 0.0
2017-Sep-17 04:59N 51°48' E 003°21'0 0.0
2017-Sep-17 04:23N 51°48' E 003°21'0 0.1
2017-Sep-17 03:59N 51°48' E 003°21'0 0.1
2017-Sep-17 03:17N 51°48' E 003°21'0 0.0
2017-Sep-17 02:56N 51°48' E 003°21'0 0.0
2017-Sep-17 02:26N 51°48' E 003°21'0 0.0
2017-Sep-17 01:02N 51°48' E 003°21'0 0.0
2017-Sep-17 00:56N 51°48' E 003°21'0 0.0
2017-Sep-17 00:26N 51°48' E 003°21'0 0.0
2017-Sep-16 23:59N 51°48' E 003°21'0 0.0
2017-Sep-16 23:26N 51°48' E 003°21'0 0.0
2017-Sep-16 22:20N 51°48' E 003°21'68 7.3
2017-Sep-16 13:02N 52°38' E 002°05'110.5
2017-Sep-16 12:56N 52°39' E 002°05'510.4
2017-Sep-16 12:30N 52°43' E 002°02'5 9.6
2017-Sep-16 12:00N 52°47' E 001°57'510.1
2017-Sep-16 11:30N 52°49' E 001°50'5 9.8
2017-Sep-16 11:00N 52°51' E 001°43'5 9.5
2017-Sep-16 10:30N 52°55' E 001°37'5 9.4
2017-Sep-16 10:01N 52°58' E 001°32'9 9.9
2017-Sep-16 09:05N 53°05' E 001°22'110.1
2017-Sep-16 09:00N 53°06' E 001°21'510.3
2017-Sep-16 08:31N 53°10' E 001°15'510.3
2017-Sep-16 08:00N 53°13' E 001°10'4610.8
2017-Sep-16 03:43N 53°35' E 000°01'312.9
2017-Sep-16 03:30N 53°36' W 000°03'510.6
2017-Sep-16 03:00N 53°38' W 000°11'511.0
2017-Sep-16 02:30N 53°43' W 000°15'1 2.6
2017-Sep-16 02:00N 53°44' W 000°16'0 1.0
2017-Sep-16 01:30N 53°45' W 000°15'0 0.0
2017-Sep-16 00:55N 53°45' W 000°15'0 0.0
2017-Sep-16 00:28N 53°45' W 000°15'0 0.0
2017-Sep-15 23:58N 53°45' W 000°15'0 0.0
2017-Sep-15 23:28N 53°45' W 000°15'0 0.0
2017-Sep-15 22:58N 53°45' W 000°15'0 0.0
2017-Sep-15 22:28N 53°45' W 000°15'0 0.0
2017-Sep-15 21:58N 53°45' W 000°15'0 0.0
2017-Sep-15 21:25N 53°45' W 000°15'0 0.0
2017-Sep-15 20:58N 53°45' W 000°15'0 0.0
2017-Sep-15 20:28N 53°45' W 000°15'0 0.0
2017-Sep-15 19:58N 53°45' W 000°15'0 0.0
2017-Sep-15 19:28N 53°45' W 000°15'0 0.0
2017-Sep-15 18:58N 53°45' W 000°15'0 0.0
2017-Sep-15 18:28N 53°45' W 000°15'0 0.0
2017-Sep-15 17:58N 53°45' W 000°15'0 0.0
2017-Sep-15 17:29N 53°45' W 000°15'0 1.0
2017-Sep-15 17:00N 53°44' W 000°16'0 0.3
2017-Sep-15 16:30N 53°44' W 000°17'0 0.6
2017-Sep-15 16:00N 53°44' W 000°16'3 6.8
2017-Sep-15 15:30N 53°41' W 000°13'4 8.5
2017-Sep-15 15:00N 53°38' W 000°09'25 6.3
2017-Sep-15 11:03N 53°59' E 000°12'112.6
2017-Sep-15 10:59N 54°00' E 000°11'612.7
2017-Sep-15 10:30N 54°06' E 000°08'612.3
2017-Sep-15 10:00N 54°12' E 000°04'612.0
2017-Sep-15 09:30N 54°17' W 000°01'611.8
2017-Sep-15 09:00N 54°22' W 000°06'611.7
2017-Sep-15 08:30N 54°27' W 000°11'611.4
2017-Sep-15 08:00N 54°32' W 000°15'510.8
2017-Sep-15 07:30N 54°37' W 000°20'510.7
2017-Sep-15 07:00N 54°42' W 000°24'1710.6
2017-Sep-15 05:27N 54°56' W 000°38'1610.7
2017-Sep-15 03:59N 55°10' W 000°51'610.7
2017-Sep-15 03:23N 55°16' W 000°56'410.7
2017-Sep-15 02:59N 55°19' W 000°60'510.8
2017-Sep-15 02:30N 55°24' W 001°04'510.9
2017-Sep-15 02:00N 55°29' W 001°09'611.2
2017-Sep-15 01:29N 55°34' W 001°14'611.1
2017-Sep-15 00:56N 55°39' W 001°19'1111.5
2017-Sep-14 23:57N 55°46' W 001°35'512.0
2017-Sep-14 23:30N 55°49' W 001°43'611.9
2017-Sep-14 23:00N 55°52' W 001°52'612.2
2017-Sep-14 22:30N 55°55' W 002°01'612.0
2017-Sep-14 22:00N 55°58' W 002°11'611.9
2017-Sep-14 21:30N 56°01' W 002°20'612.0
2017-Sep-14 21:00N 56°04' W 002°30'611.7
2017-Sep-14 20:30N 56°06' W 002°39'611.8
2017-Sep-14 20:00N 56°06' W 002°50'611.1
2017-Sep-14 19:30N 56°03' W 002°59'510.6
2017-Sep-14 19:00N 56°03' W 003°08'510.9
2017-Sep-14 18:30N 56°01' W 003°18'8 0.3
2017-Sep-13 19:31N 56°02' W 003°32'011.6
2017-Sep-13 19:30N 56°02' W 003°32'611.8
2017-Sep-13 19:00N 56°01' W 003°21'612.4
2017-Sep-13 18:30N 56°03' W 003°11'2 4.6
2017-Sep-13 17:58N 56°02' W 003°06'0 0.0
2017-Sep-13 17:28N 56°02' W 003°06'0 0.1
2017-Sep-13 16:58N 56°02' W 003°06'0 0.0
2017-Sep-13 16:28N 56°02' W 003°06'0 0.0
2017-Sep-13 15:58N 56°02' W 003°06'0 0.0
2017-Sep-13 15:28N 56°02' W 003°06'0 0.1
2017-Sep-13 14:58N 56°02' W 003°07'0 0.2
2017-Sep-13 14:28N 56°02' W 003°06'0 0.0
2017-Sep-13 13:58N 56°02' W 003°06'0 0.0
2017-Sep-13 13:28N 56°02' W 003°06'0 0.0
2017-Sep-13 12:58N 56°02' W 003°06'0 0.0
2017-Sep-13 12:28N 56°02' W 003°06'0 0.0
2017-Sep-13 11:58N 56°02' W 003°06'0 0.0
2017-Sep-13 11:28N 56°02' W 003°06'0 0.0
2017-Sep-13 10:58N 56°02' W 003°06'0 0.0
2017-Sep-13 10:28N 56°02' W 003°06'0 0.0
2017-Sep-13 09:58N 56°02' W 003°06'0 0.0
2017-Sep-13 09:28N 56°02' W 003°06'0 0.0
2017-Sep-13 08:58N 56°02' W 003°06'0 0.0
2017-Sep-13 08:28N 56°02' W 003°06'0 0.0
2017-Sep-13 07:58N 56°02' W 003°06'0 0.0
2017-Sep-13 07:28N 56°02' W 003°06'0 0.0
2017-Sep-13 06:58N 56°02' W 003°06'0 0.0
2017-Sep-13 06:28N 56°02' W 003°06'0 0.0
2017-Sep-13 05:58N 56°02' W 003°06'0 0.0
2017-Sep-13 05:28N 56°02' W 003°06'0 0.0
2017-Sep-13 04:58N 56°02' W 003°06'0 0.0
2017-Sep-13 04:28N 56°02' W 003°06'0 0.0
2017-Sep-13 03:58N 56°02' W 003°06'0 0.0
2017-Sep-13 03:28N 56°02' W 003°06'0 0.0
2017-Sep-13 02:58N 56°02' W 003°06'0 0.0
2017-Sep-13 02:28N 56°02' W 003°06'0 0.1
2017-Sep-13 01:58N 56°02' W 003°06'0 0.0
2017-Sep-13 01:28N 56°02' W 003°06'0 0.0
2017-Sep-13 00:58N 56°02' W 003°06'0 0.0
2017-Sep-13 00:28N 56°02' W 003°06'0 0.0
2017-Sep-12 23:58N 56°02' W 003°06'0 0.0
2017-Sep-12 23:28N 56°02' W 003°06'0 0.0
2017-Sep-12 22:58N 56°02' W 003°06'0 0.0
2017-Sep-12 22:28N 56°02' W 003°06'0 0.1
2017-Sep-12 21:58N 56°02' W 003°06'0 0.1
2017-Sep-12 21:28N 56°02' W 003°06'0 0.0
2017-Sep-12 20:58N 56°02' W 003°06'0 0.0
2017-Sep-12 20:28N 56°02' W 003°06'0 0.0
2017-Sep-12 19:58N 56°02' W 003°06'0 0.0
2017-Sep-12 19:28N 56°02' W 003°06'0 0.0
2017-Sep-12 18:58N 56°02' W 003°06'0 0.0
2017-Sep-12 18:28N 56°02' W 003°06'0 0.0
2017-Sep-12 17:58N 56°02' W 003°06'0 0.0
2017-Sep-12 17:28N 56°02' W 003°06'0 0.0
2017-Sep-12 16:58N 56°02' W 003°06'0 0.1
2017-Sep-12 16:28N 56°02' W 003°06'0 0.0
2017-Sep-12 15:58N 56°02' W 003°06'0 0.0
2017-Sep-12 15:28N 56°02' W 003°06'0 0.0
2017-Sep-12 14:58N 56°02' W 003°06'0 0.1
2017-Sep-12 14:28N 56°02' W 003°06'0 0.0
2017-Sep-12 13:58N 56°02' W 003°06'0 0.1
2017-Sep-12 13:28N 56°02' W 003°06'0 0.1
2017-Sep-12 12:58N 56°02' W 003°06'0 0.0
2017-Sep-12 12:28N 56°02' W 003°06'0 0.0
2017-Sep-12 11:58N 56°02' W 003°06'0 0.0
2017-Sep-12 11:28N 56°02' W 003°06'0 0.0
2017-Sep-12 10:58N 56°02' W 003°06'0 0.0
2017-Sep-12 10:28N 56°02' W 003°06'0 0.0
2017-Sep-12 09:58N 56°02' W 003°06'0 0.0
2017-Sep-12 09:28N 56°02' W 003°06'0 0.0
2017-Sep-12 08:58N 56°02' W 003°06'0 0.0
2017-Sep-12 08:28N 56°02' W 003°06'0 0.7
2017-Sep-12 08:00N 56°02' W 003°06'5 9.6
2017-Sep-12 07:30N 56°04' W 002°58'510.9
2017-Sep-12 07:00N 56°06' W 002°49'510.6
2017-Sep-12 06:30N 56°06' W 002°40'510.9
2017-Sep-12 06:00N 56°05' W 002°30'511.0
2017-Sep-12 05:30N 56°04' W 002°20'510.6
2017-Sep-12 05:00N 56°03' W 002°11'510.6
2017-Sep-12 04:30N 56°02' W 002°02'510.5
2017-Sep-12 04:00N 56°01' W 001°52'510.4
2017-Sep-12 03:30N 55°60' W 001°43'5 9.8
2017-Sep-12 02:59N 55°57' W 001°36'28 7.4
2017-Sep-11 23:07N 55°35' W 001°02'3 8.2
2017-Sep-11 22:47N 55°33' W 001°01'3 8.2
2017-Sep-11 22:26N 55°30' W 001°01'5 8.3
2017-Sep-11 21:50N 55°25' W 000°59'4 8.7
2017-Sep-11 21:20N 55°21' W 000°58'3 9.2
2017-Sep-11 21:00N 55°18' W 000°58'5 9.1
2017-Sep-11 20:28N 55°13' W 000°57'1410.4
2017-Sep-11 19:08N 54°59' W 000°53'111.0
2017-Sep-11 19:00N 54°58' W 000°53'611.1
2017-Sep-11 18:30N 54°52' W 000°51'510.3
2017-Sep-11 18:00N 54°47' W 000°54'612.3
2017-Sep-11 17:30N 54°43' W 001°02'  

Dump ship's entire track history